sensor_id;sensor_type;location;lat;lon;timestamp;temperature;humidity
66598;DHT22;57424;53.128;6.406;2024-02-21T00:01:35;13.40;73.70
66598;DHT22;57424;53.128;6.406;2024-02-21T00:04:01;13.40;73.70
66598;DHT22;57424;53.128;6.406;2024-02-21T00:06:27;13.40;73.60
66598;DHT22;57424;53.128;6.406;2024-02-21T00:08:52;13.40;73.70
66598;DHT22;57424;53.128;6.406;2024-02-21T00:11:18;13.40;73.70
66598;DHT22;57424;53.128;6.406;2024-02-21T00:13:43;13.40;73.70
66598;DHT22;57424;53.128;6.406;2024-02-21T00:16:09;13.40;73.70
66598;DHT22;57424;53.128;6.406;2024-02-21T00:18:36;13.40;73.70
66598;DHT22;57424;53.128;6.406;2024-02-21T00:21:01;13.40;73.70
66598;DHT22;57424;53.128;6.406;2024-02-21T00:23:27;13.40;73.70
66598;DHT22;57424;53.128;6.406;2024-02-21T00:25:54;13.40;73.70
66598;DHT22;57424;53.128;6.406;2024-02-21T00:28:19;13.40;73.80
66598;DHT22;57424;53.128;6.406;2024-02-21T00:30:45;13.40;73.80
66598;DHT22;57424;53.128;6.406;2024-02-21T00:33:13;13.40;73.70
66598;DHT22;57424;53.128;6.406;2024-02-21T00:35:38;13.40;73.70
66598;DHT22;57424;53.128;6.406;2024-02-21T00:38:04;13.40;73.70
66598;DHT22;57424;53.128;6.406;2024-02-21T00:40:30;13.40;73.70
66598;DHT22;57424;53.128;6.406;2024-02-21T00:42:55;13.40;73.70
66598;DHT22;57424;53.128;6.406;2024-02-21T00:45:21;13.40;73.70
66598;DHT22;57424;53.128;6.406;2024-02-21T00:47:47;13.40;73.70
66598;DHT22;57424;53.128;6.406;2024-02-21T00:50:12;13.40;73.70
66598;DHT22;57424;53.128;6.406;2024-02-21T00:52:38;13.40;73.70
66598;DHT22;57424;53.128;6.406;2024-02-21T00:55:04;13.40;73.70
66598;DHT22;57424;53.128;6.406;2024-02-21T00:57:30;13.40;73.70
66598;DHT22;57424;53.128;6.406;2024-02-21T00:59:56;13.40;73.70
66598;DHT22;57424;53.128;6.406;2024-02-21T01:02:21;13.30;73.60
66598;DHT22;57424;53.128;6.406;2024-02-21T01:04:47;13.40;73.70
66598;DHT22;57424;53.128;6.406;2024-02-21T01:07:12;13.30;73.60
66598;DHT22;57424;53.128;6.406;2024-02-21T01:09:38;13.30;73.60
66598;DHT22;57424;53.128;6.406;2024-02-21T01:12:04;13.30;73.60
66598;DHT22;57424;53.128;6.406;2024-02-21T01:14:29;13.30;73.60
66598;DHT22;57424;53.128;6.406;2024-02-21T01:16:55;13.30;73.60
66598;DHT22;57424;53.128;6.406;2024-02-21T01:19:20;13.30;73.70
66598;DHT22;57424;53.128;6.406;2024-02-21T01:21:46;13.30;73.60
66598;DHT22;57424;53.128;6.406;2024-02-21T01:24:11;13.30;73.70
66598;DHT22;57424;53.128;6.406;2024-02-21T01:26:37;13.30;73.70
66598;DHT22;57424;53.128;6.406;2024-02-21T01:29:02;13.30;73.70
66598;DHT22;57424;53.128;6.406;2024-02-21T01:31:28;13.30;73.70
66598;DHT22;57424;53.128;6.406;2024-02-21T01:33:53;13.30;73.70
66598;DHT22;57424;53.128;6.406;2024-02-21T01:36:19;13.30;73.70
66598;DHT22;57424;53.128;6.406;2024-02-21T01:38:44;13.30;73.70
66598;DHT22;57424;53.128;6.406;2024-02-21T01:41:11;13.30;73.70
66598;DHT22;57424;53.128;6.406;2024-02-21T01:43:36;13.30;73.70
66598;DHT22;57424;53.128;6.406;2024-02-21T01:46:02;13.30;73.70
66598;DHT22;57424;53.128;6.406;2024-02-21T01:48:28;13.30;73.70
66598;DHT22;57424;53.128;6.406;2024-02-21T01:50:54;13.30;73.70
66598;DHT22;57424;53.128;6.406;2024-02-21T01:53:29;13.30;73.70
66598;DHT22;57424;53.128;6.406;2024-02-21T01:55:55;13.30;73.80
66598;DHT22;57424;53.128;6.406;2024-02-21T01:58:21;13.30;73.80
66598;DHT22;57424;53.128;6.406;2024-02-21T02:00:47;13.30;73.80
66598;DHT22;57424;53.128;6.406;2024-02-21T02:03:13;13.30;73.80
66598;DHT22;57424;53.128;6.406;2024-02-21T02:05:49;13.30;73.80
66598;DHT22;57424;53.128;6.406;2024-02-21T02:08:16;13.30;73.90
66598;DHT22;57424;53.128;6.406;2024-02-21T02:10:42;13.30;73.80
66598;DHT22;57424;53.128;6.406;2024-02-21T02:13:11;13.30;73.80
66598;DHT22;57424;53.128;6.406;2024-02-21T02:15:40;13.30;73.80
66598;DHT22;57424;53.128;6.406;2024-02-21T02:18:06;13.30;73.80
66598;DHT22;57424;53.128;6.406;2024-02-21T02:20:31;13.20;73.70
66598;DHT22;57424;53.128;6.406;2024-02-21T02:22:59;13.20;73.80
66598;DHT22;57424;53.128;6.406;2024-02-21T02:25:26;13.30;73.80
66598;DHT22;57424;53.128;6.406;2024-02-21T02:27:51;13.20;73.80
66598;DHT22;57424;53.128;6.406;2024-02-21T02:30:17;13.20;73.80
66598;DHT22;57424;53.128;6.406;2024-02-21T02:32:45;13.20;74.50
66598;DHT22;57424;53.128;6.406;2024-02-21T02:35:11;13.20;73.90
66598;DHT22;57424;53.128;6.406;2024-02-21T02:37:37;13.20;73.80
66598;DHT22;57424;53.128;6.406;2024-02-21T02:40:05;13.20;73.80
66598;DHT22;57424;53.128;6.406;2024-02-21T02:42:31;13.20;73.80
66598;DHT22;57424;53.128;6.406;2024-02-21T02:44:56;13.20;73.80
66598;DHT22;57424;53.128;6.406;2024-02-21T02:47:22;13.20;73.90
66598;DHT22;57424;53.128;6.406;2024-02-21T02:49:48;13.20;73.90
66598;DHT22;57424;53.128;6.406;2024-02-21T02:52:16;13.20;73.90
66598;DHT22;57424;53.128;6.406;2024-02-21T02:54:42;13.20;74.00
66598;DHT22;57424;53.128;6.406;2024-02-21T02:57:08;13.20;74.00
66598;DHT22;57424;53.128;6.406;2024-02-21T02:59:33;13.20;74.00
66598;DHT22;57424;53.128;6.406;2024-02-21T03:01:59;13.20;74.00
66598;DHT22;57424;53.128;6.406;2024-02-21T03:04:24;13.20;74.00
66598;DHT22;57424;53.128;6.406;2024-02-21T03:06:50;13.20;74.00
66598;DHT22;57424;53.128;6.406;2024-02-21T03:09:16;13.20;74.00
66598;DHT22;57424;53.128;6.406;2024-02-21T03:11:43;13.20;74.00
66598;DHT22;57424;53.128;6.406;2024-02-21T03:14:10;13.20;74.00
66598;DHT22;57424;53.128;6.406;2024-02-21T03:16:36;13.20;74.30
66598;DHT22;57424;53.128;6.406;2024-02-21T03:19:01;13.20;74.00
66598;DHT22;57424;53.128;6.406;2024-02-21T03:21:27;13.20;74.00
66598;DHT22;57424;53.128;6.406;2024-02-21T03:23:52;13.20;74.00
66598;DHT22;57424;53.128;6.406;2024-02-21T03:26:18;13.20;74.00
66598;DHT22;57424;53.128;6.406;2024-02-21T03:28:44;13.20;74.00
66598;DHT22;57424;53.128;6.406;2024-02-21T03:31:13;13.20;74.00
66598;DHT22;57424;53.128;6.406;2024-02-21T03:33:43;13.20;74.00
66598;DHT22;57424;53.128;6.406;2024-02-21T03:36:15;13.20;74.00
66598;DHT22;57424;53.128;6.406;2024-02-21T03:38:41;13.20;74.10
66598;DHT22;57424;53.128;6.406;2024-02-21T03:41:06;13.20;74.00
66598;DHT22;57424;53.128;6.406;2024-02-21T03:43:32;13.20;74.00
66598;DHT22;57424;53.128;6.406;2024-02-21T03:45:57;13.20;74.00
66598;DHT22;57424;53.128;6.406;2024-02-21T03:48:23;13.20;74.00
66598;DHT22;57424;53.128;6.406;2024-02-21T03:50:48;13.20;74.00
66598;DHT22;57424;53.128;6.406;2024-02-21T03:53:14;13.20;74.00
66598;DHT22;57424;53.128;6.406;2024-02-21T03:55:39;13.10;74.00
66598;DHT22;57424;53.128;6.406;2024-02-21T03:58:05;13.10;74.00
66598;DHT22;57424;53.128;6.406;2024-02-21T04:00:30;13.10;74.00
66598;DHT22;57424;53.128;6.406;2024-02-21T04:02:56;13.20;74.10
66598;DHT22;57424;53.128;6.406;2024-02-21T04:05:22;13.10;74.00
66598;DHT22;57424;53.128;6.406;2024-02-21T04:07:47;13.10;74.00
66598;DHT22;57424;53.128;6.406;2024-02-21T04:10:13;13.10;74.00
66598;DHT22;57424;53.128;6.406;2024-02-21T04:12:38;13.10;74.00
66598;DHT22;57424;53.128;6.406;2024-02-21T04:15:04;13.10;74.00
66598;DHT22;57424;53.128;6.406;2024-02-21T04:17:30;13.10;74.00
66598;DHT22;57424;53.128;6.406;2024-02-21T04:20:04;13.10;74.00
66598;DHT22;57424;53.128;6.406;2024-02-21T04:22:34;13.10;74.10
66598;DHT22;57424;53.128;6.406;2024-02-21T04:25:02;13.10;74.00
66598;DHT22;57424;53.128;6.406;2024-02-21T04:27:28;13.10;74.10
66598;DHT22;57424;53.128;6.406;2024-02-21T04:29:54;13.10;74.00
66598;DHT22;57424;53.128;6.406;2024-02-21T04:32:19;13.10;74.10
66598;DHT22;57424;53.128;6.406;2024-02-21T04:34:45;13.10;74.10
66598;DHT22;57424;53.128;6.406;2024-02-21T04:37:10;13.10;74.00
66598;DHT22;57424;53.128;6.406;2024-02-21T04:39:36;13.10;74.00
66598;DHT22;57424;53.128;6.406;2024-02-21T04:42:01;13.10;74.00
66598;DHT22;57424;53.128;6.406;2024-02-21T04:44:27;13.10;74.00
66598;DHT22;57424;53.128;6.406;2024-02-21T04:46:52;13.10;74.10
66598;DHT22;57424;53.128;6.406;2024-02-21T04:49:18;13.10;74.00
66598;DHT22;57424;53.128;6.406;2024-02-21T04:51:44;13.10;74.00
66598;DHT22;57424;53.128;6.406;2024-02-21T04:54:10;13.10;74.00
66598;DHT22;57424;53.128;6.406;2024-02-21T04:56:36;13.10;74.10
66598;DHT22;57424;53.128;6.406;2024-02-21T04:59:01;13.10;74.10
66598;DHT22;57424;53.128;6.406;2024-02-21T05:01:28;13.10;74.10
66598;DHT22;57424;53.128;6.406;2024-02-21T05:03:53;13.10;74.10
66598;DHT22;57424;53.128;6.406;2024-02-21T05:06:19;13.10;74.10
66598;DHT22;57424;53.128;6.406;2024-02-21T05:08:44;13.10;74.20
66598;DHT22;57424;53.128;6.406;2024-02-21T05:11:13;13.10;74.20
66598;DHT22;57424;53.128;6.406;2024-02-21T05:13:38;13.10;74.20
66598;DHT22;57424;53.128;6.406;2024-02-21T05:16:04;13.10;74.20
66598;DHT22;57424;53.128;6.406;2024-02-21T05:18:30;13.10;74.10
66598;DHT22;57424;53.128;6.406;2024-02-21T05:20:55;13.00;74.10
66598;DHT22;57424;53.128;6.406;2024-02-21T05:23:21;13.10;74.10
66598;DHT22;57424;53.128;6.406;2024-02-21T05:25:47;13.10;74.10
66598;DHT22;57424;53.128;6.406;2024-02-21T05:28:12;13.00;74.00
66598;DHT22;57424;53.128;6.406;2024-02-21T05:30:38;13.10;74.10
66598;DHT22;57424;53.128;6.406;2024-02-21T05:33:05;13.10;74.10
66598;DHT22;57424;53.128;6.406;2024-02-21T05:35:31;13.10;74.10
66598;DHT22;57424;53.128;6.406;2024-02-21T05:37:56;13.00;74.10
66598;DHT22;57424;53.128;6.406;2024-02-21T05:40:22;13.00;74.10
66598;DHT22;57424;53.128;6.406;2024-02-21T05:42:48;13.00;74.10
66598;DHT22;57424;53.128;6.406;2024-02-21T05:45:14;13.00;74.10
66598;DHT22;57424;53.128;6.406;2024-02-21T05:47:41;13.10;74.20
66598;DHT22;57424;53.128;6.406;2024-02-21T05:50:07;13.00;74.20
66598;DHT22;57424;53.128;6.406;2024-02-21T05:52:33;13.00;74.20
66598;DHT22;57424;53.128;6.406;2024-02-21T05:54:58;13.00;74.20
66598;DHT22;57424;53.128;6.406;2024-02-21T05:57:24;13.00;74.20
66598;DHT22;57424;53.128;6.406;2024-02-21T05:59:49;13.00;74.80
66598;DHT22;57424;53.128;6.406;2024-02-21T06:02:15;13.00;74.20
66598;DHT22;57424;53.128;6.406;2024-02-21T06:04:41;13.00;74.20
66598;DHT22;57424;53.128;6.406;2024-02-21T06:07:08;13.00;74.20
66598;DHT22;57424;53.128;6.406;2024-02-21T06:09:34;13.00;74.20
66598;DHT22;57424;53.128;6.406;2024-02-21T06:11:59;13.00;74.20
66598;DHT22;57424;53.128;6.406;2024-02-21T06:14:25;13.00;74.10
66598;DHT22;57424;53.128;6.406;2024-02-21T06:16:50;13.00;74.10
66598;DHT22;57424;53.128;6.406;2024-02-21T06:19:16;13.00;74.10
66598;DHT22;57424;53.128;6.406;2024-02-21T06:21:42;13.00;74.20
66598;DHT22;57424;53.128;6.406;2024-02-21T06:24:07;13.00;74.20
66598;DHT22;57424;53.128;6.406;2024-02-21T06:26:33;13.00;74.20
66598;DHT22;57424;53.128;6.406;2024-02-21T06:28:58;13.00;74.20
66598;DHT22;57424;53.128;6.406;2024-02-21T06:31:28;13.00;74.30
66598;DHT22;57424;53.128;6.406;2024-02-21T06:33:54;13.00;74.30
66598;DHT22;57424;53.128;6.406;2024-02-21T06:36:19;13.00;74.30
66598;DHT22;57424;53.128;6.406;2024-02-21T06:38:45;13.00;74.20
66598;DHT22;57424;53.128;6.406;2024-02-21T06:41:17;13.00;74.20
66598;DHT22;57424;53.128;6.406;2024-02-21T06:43:45;13.00;74.20
66598;DHT22;57424;53.128;6.406;2024-02-21T06:46:11;13.00;74.20
66598;DHT22;57424;53.128;6.406;2024-02-21T06:48:37;13.00;74.20
66598;DHT22;57424;53.128;6.406;2024-02-21T06:51:03;13.00;74.20
66598;DHT22;57424;53.128;6.406;2024-02-21T06:53:29;13.00;74.20
66598;DHT22;57424;53.128;6.406;2024-02-21T06:55:55;13.00;74.20
66598;DHT22;57424;53.128;6.406;2024-02-21T06:58:20;13.10;74.30
66598;DHT22;57424;53.128;6.406;2024-02-21T07:00:46;13.00;74.20
66598;DHT22;57424;53.128;6.406;2024-02-21T07:03:12;13.00;74.20
66598;DHT22;57424;53.128;6.406;2024-02-21T07:05:37;13.10;74.30
66598;DHT22;57424;53.128;6.406;2024-02-21T07:08:03;13.10;74.30
66598;DHT22;57424;53.128;6.406;2024-02-21T07:10:29;13.10;74.30
66598;DHT22;57424;53.128;6.406;2024-02-21T07:12:55;13.10;74.30
66598;DHT22;57424;53.128;6.406;2024-02-21T07:15:20;13.10;74.30
66598;DHT22;57424;53.128;6.406;2024-02-21T07:17:46;13.10;74.30
66598;DHT22;57424;53.128;6.406;2024-02-21T07:20:11;13.10;74.30
66598;DHT22;57424;53.128;6.406;2024-02-21T07:22:37;13.10;74.30
66598;DHT22;57424;53.128;6.406;2024-02-21T07:25:03;13.10;74.30
66598;DHT22;57424;53.128;6.406;2024-02-21T07:27:29;13.10;74.30
66598;DHT22;57424;53.128;6.406;2024-02-21T07:29:57;13.10;74.30
66598;DHT22;57424;53.128;6.406;2024-02-21T07:32:22;13.10;74.30
66598;DHT22;57424;53.128;6.406;2024-02-21T07:34:48;13.10;74.20
66598;DHT22;57424;53.128;6.406;2024-02-21T07:37:14;13.10;74.20
66598;DHT22;57424;53.128;6.406;2024-02-21T07:39:39;13.10;74.20
66598;DHT22;57424;53.128;6.406;2024-02-21T07:42:05;13.20;74.30
66598;DHT22;57424;53.128;6.406;2024-02-21T07:44:31;13.20;74.30
66598;DHT22;57424;53.128;6.406;2024-02-21T07:46:57;13.10;74.20
66598;DHT22;57424;53.128;6.406;2024-02-21T07:49:24;13.20;74.30
66598;DHT22;57424;53.128;6.406;2024-02-21T07:51:50;13.20;74.30
66598;DHT22;57424;53.128;6.406;2024-02-21T07:54:15;13.20;74.30
66598;DHT22;57424;53.128;6.406;2024-02-21T07:56:41;13.20;74.30
66598;DHT22;57424;53.128;6.406;2024-02-21T07:59:06;13.20;74.30
66598;DHT22;57424;53.128;6.406;2024-02-21T08:01:33;13.20;74.30
66598;DHT22;57424;53.128;6.406;2024-02-21T08:03:58;13.20;74.30
66598;DHT22;57424;53.128;6.406;2024-02-21T08:06:24;13.20;74.30
66598;DHT22;57424;53.128;6.406;2024-02-21T08:08:50;13.30;74.40
66598;DHT22;57424;53.128;6.406;2024-02-21T08:11:16;13.20;74.30
66598;DHT22;57424;53.128;6.406;2024-02-21T08:13:41;13.20;74.30
66598;DHT22;57424;53.128;6.406;2024-02-21T08:16:07;13.30;74.40
66598;DHT22;57424;53.128;6.406;2024-02-21T08:18:32;13.20;74.30
66598;DHT22;57424;53.128;6.406;2024-02-21T08:21:03;13.30;74.40
66598;DHT22;57424;53.128;6.406;2024-02-21T08:23:28;13.30;74.30
66598;DHT22;57424;53.128;6.406;2024-02-21T08:25:54;13.30;74.30
66598;DHT22;57424;53.128;6.406;2024-02-21T08:28:20;13.30;74.30
66598;DHT22;57424;53.128;6.406;2024-02-21T08:30:45;13.30;74.30
66598;DHT22;57424;53.128;6.406;2024-02-21T08:33:16;13.30;74.30
66598;DHT22;57424;53.128;6.406;2024-02-21T08:35:42;13.30;74.30
66598;DHT22;57424;53.128;6.406;2024-02-21T08:38:08;13.30;74.30
66598;DHT22;57424;53.128;6.406;2024-02-21T08:40:33;13.30;74.40
66598;DHT22;57424;53.128;6.406;2024-02-21T08:43:00;13.30;74.30
66598;DHT22;57424;53.128;6.406;2024-02-21T08:45:26;13.30;75.00
66598;DHT22;57424;53.128;6.406;2024-02-21T08:47:52;13.40;74.40
66598;DHT22;57424;53.128;6.406;2024-02-21T08:50:17;13.40;74.40
66598;DHT22;57424;53.128;6.406;2024-02-21T08:52:43;13.40;74.50
66598;DHT22;57424;53.128;6.406;2024-02-21T08:55:08;13.40;74.40
66598;DHT22;57424;53.128;6.406;2024-02-21T08:57:34;13.40;74.40
66598;DHT22;57424;53.128;6.406;2024-02-21T09:00:04;13.40;74.40
66598;DHT22;57424;53.128;6.406;2024-02-21T09:02:39;13.40;74.40
66598;DHT22;57424;53.128;6.406;2024-02-21T09:05:05;13.40;74.40
66598;DHT22;57424;53.128;6.406;2024-02-21T09:07:31;13.40;74.40
66598;DHT22;57424;53.128;6.406;2024-02-21T09:09:56;13.40;74.30
66598;DHT22;57424;53.128;6.406;2024-02-21T09:12:22;13.40;74.40
66598;DHT22;57424;53.128;6.406;2024-02-21T09:14:48;13.50;74.40
66598;DHT22;57424;53.128;6.406;2024-02-21T09:17:16;13.50;74.50
66598;DHT22;57424;53.128;6.406;2024-02-21T09:19:43;13.50;74.40
66598;DHT22;57424;53.128;6.406;2024-02-21T09:22:09;13.50;74.40
66598;DHT22;57424;53.128;6.406;2024-02-21T09:24:34;13.50;74.40
66598;DHT22;57424;53.128;6.406;2024-02-21T09:27:00;13.50;74.30
66598;DHT22;57424;53.128;6.406;2024-02-21T09:29:25;13.50;74.30
66598;DHT22;57424;53.128;6.406;2024-02-21T09:31:51;13.50;74.30
66598;DHT22;57424;53.128;6.406;2024-02-21T09:34:17;13.50;74.30
66598;DHT22;57424;53.128;6.406;2024-02-21T09:36:43;13.50;74.30
66598;DHT22;57424;53.128;6.406;2024-02-21T09:39:12;13.50;74.20
66598;DHT22;57424;53.128;6.406;2024-02-21T09:41:47;13.50;74.30
66598;DHT22;57424;53.128;6.406;2024-02-21T09:44:13;13.50;74.20
66598;DHT22;57424;53.128;6.406;2024-02-21T09:46:56;13.50;74.20
66598;DHT22;57424;53.128;6.406;2024-02-21T09:49:29;13.50;74.20
66598;DHT22;57424;53.128;6.406;2024-02-21T09:51:55;13.50;74.10
66598;DHT22;57424;53.128;6.406;2024-02-21T09:54:22;13.60;74.20
66598;DHT22;57424;53.128;6.406;2024-02-21T09:56:48;13.50;74.10
66598;DHT22;57424;53.128;6.406;2024-02-21T09:59:16;13.50;74.10
66598;DHT22;57424;53.128;6.406;2024-02-21T10:01:44;13.50;74.10
66598;DHT22;57424;53.128;6.406;2024-02-21T10:04:12;13.60;74.10
66598;DHT22;57424;53.128;6.406;2024-02-21T10:06:40;13.60;74.10
66598;DHT22;57424;53.128;6.406;2024-02-21T10:09:06;13.60;74.10
66598;DHT22;57424;53.128;6.406;2024-02-21T10:11:32;13.60;74.10
66598;DHT22;57424;53.128;6.406;2024-02-21T10:14:05;13.60;74.10
66598;DHT22;57424;53.128;6.406;2024-02-21T10:16:31;13.60;74.00
66598;DHT22;57424;53.128;6.406;2024-02-21T10:18:57;13.60;74.00
66598;DHT22;57424;53.128;6.406;2024-02-21T10:21:22;13.60;74.00
66598;DHT22;57424;53.128;6.406;2024-02-21T10:23:49;13.60;74.00
66598;DHT22;57424;53.128;6.406;2024-02-21T10:26:17;13.60;73.90
66598;DHT22;57424;53.128;6.406;2024-02-21T10:28:43;13.60;73.90
66598;DHT22;57424;53.128;6.406;2024-02-21T10:31:21;13.60;73.90
66598;DHT22;57424;53.128;6.406;2024-02-21T10:33:53;13.60;73.90
66598;DHT22;57424;53.128;6.406;2024-02-21T10:36:19;13.60;73.80
66598;DHT22;57424;53.128;6.406;2024-02-21T10:38:44;13.60;73.80
66598;DHT22;57424;53.128;6.406;2024-02-21T10:41:13;13.60;73.80
66598;DHT22;57424;53.128;6.406;2024-02-21T10:43:40;13.60;73.80
66598;DHT22;57424;53.128;6.406;2024-02-21T10:46:08;13.60;73.80
66598;DHT22;57424;53.128;6.406;2024-02-21T10:49:01;13.60;73.80
66598;DHT22;57424;53.128;6.406;2024-02-21T10:51:30;13.60;73.80
66598;DHT22;57424;53.128;6.406;2024-02-21T10:57:02;13.70;73.80
66598;DHT22;57424;53.128;6.406;2024-02-21T10:59:30;13.70;73.80
66598;DHT22;57424;53.128;6.406;2024-02-21T11:01:57;13.70;73.80
66598;DHT22;57424;53.128;6.406;2024-02-21T11:04:23;13.70;73.80
66598;DHT22;57424;53.128;6.406;2024-02-21T11:06:55;13.70;73.80
66598;DHT22;57424;53.128;6.406;2024-02-21T11:09:30;13.80;73.80
66598;DHT22;57424;53.128;6.406;2024-02-21T11:11:58;13.70;73.60
66598;DHT22;57424;53.128;6.406;2024-02-21T11:14:27;13.80;73.70
66598;DHT22;57424;53.128;6.406;2024-02-21T11:16:53;13.80;73.60
66598;DHT22;57424;53.128;6.406;2024-02-21T11:19:24;13.80;73.60
66598;DHT22;57424;53.128;6.406;2024-02-21T11:21:51;13.80;73.60
66598;DHT22;57424;53.128;6.406;2024-02-21T11:26:53;13.80;73.40
66598;DHT22;57424;53.128;6.406;2024-02-21T11:29:25;13.80;73.40
66598;DHT22;57424;53.128;6.406;2024-02-21T11:31:51;13.80;73.40
66598;DHT22;57424;53.128;6.406;2024-02-21T11:34:18;13.80;73.30
66598;DHT22;57424;53.128;6.406;2024-02-21T11:37:13;13.80;73.30
66598;DHT22;57424;53.128;6.406;2024-02-21T11:39:42;13.80;73.90
66598;DHT22;57424;53.128;6.406;2024-02-21T11:42:08;13.80;73.30
66598;DHT22;57424;53.128;6.406;2024-02-21T11:44:35;13.90;73.30
66598;DHT22;57424;53.128;6.406;2024-02-21T11:47:03;13.80;73.10
66598;DHT22;57424;53.128;6.406;2024-02-21T11:49:29;13.90;73.20
66598;DHT22;57424;53.128;6.406;2024-02-21T11:51:59;13.80;73.10
66598;DHT22;57424;53.128;6.406;2024-02-21T11:54:26;13.80;73.00
66598;DHT22;57424;53.128;6.406;2024-02-21T11:56:52;13.90;73.10
66598;DHT22;57424;53.128;6.406;2024-02-21T11:59:17;13.90;73.10
66598;DHT22;57424;53.128;6.406;2024-02-21T12:01:43;13.90;73.10
66598;DHT22;57424;53.128;6.406;2024-02-21T12:04:08;13.90;73.10
66598;DHT22;57424;53.128;6.406;2024-02-21T12:06:34;13.90;73.10
66598;DHT22;57424;53.128;6.406;2024-02-21T12:08:59;13.90;73.10
66598;DHT22;57424;53.128;6.406;2024-02-21T12:11:26;13.90;73.10
66598;DHT22;57424;53.128;6.406;2024-02-21T12:14:01;13.90;73.10
66598;DHT22;57424;53.128;6.406;2024-02-21T12:16:31;13.90;73.00
66598;DHT22;57424;53.128;6.406;2024-02-21T12:18:58;13.90;73.00
66598;DHT22;57424;53.128;6.406;2024-02-21T12:21:29;13.90;72.90
66598;DHT22;57424;53.128;6.406;2024-02-21T12:23:55;13.90;73.00
66598;DHT22;57424;53.128;6.406;2024-02-21T12:26:22;13.90;73.00
66598;DHT22;57424;53.128;6.406;2024-02-21T12:28:47;13.90;73.00
66598;DHT22;57424;53.128;6.406;2024-02-21T12:31:13;13.90;72.90
66598;DHT22;57424;53.128;6.406;2024-02-21T12:33:39;13.90;72.90
66598;DHT22;57424;53.128;6.406;2024-02-21T12:36:08;13.90;72.90
66598;DHT22;57424;53.128;6.406;2024-02-21T12:38:34;13.90;72.90
66598;DHT22;57424;53.128;6.406;2024-02-21T12:41:00;13.90;72.80
66598;DHT22;57424;53.128;6.406;2024-02-21T12:43:26;13.90;72.80
66598;DHT22;57424;53.128;6.406;2024-02-21T12:45:51;13.90;72.80
66598;DHT22;57424;53.128;6.406;2024-02-21T12:48:18;13.90;72.70
66598;DHT22;57424;53.128;6.406;2024-02-21T12:50:50;13.90;72.80
66598;DHT22;57424;53.128;6.406;2024-02-21T12:53:19;13.90;72.80
66598;DHT22;57424;53.128;6.406;2024-02-21T12:55:47;13.90;72.70
66598;DHT22;57424;53.128;6.406;2024-02-21T12:58:14;13.90;72.60
66598;DHT22;57424;53.128;6.406;2024-02-21T13:00:40;13.90;72.60
66598;DHT22;57424;53.128;6.406;2024-02-21T13:03:06;14.00;72.60
66598;DHT22;57424;53.128;6.406;2024-02-21T13:05:32;13.90;72.70
66598;DHT22;57424;53.128;6.406;2024-02-21T13:07:58;14.00;72.50
66598;DHT22;57424;53.128;6.406;2024-02-21T13:10:24;13.90;72.40
66598;DHT22;57424;53.128;6.406;2024-02-21T13:12:49;13.90;72.30
66598;DHT22;57424;53.128;6.406;2024-02-21T13:15:15;13.90;72.30
66598;DHT22;57424;53.128;6.406;2024-02-21T13:17:43;13.90;72.20
66598;DHT22;57424;53.128;6.406;2024-02-21T13:20:12;14.00;72.90
66598;DHT22;57424;53.128;6.406;2024-02-21T13:22:38;14.00;72.30
66598;DHT22;57424;53.128;6.406;2024-02-21T13:25:04;14.00;72.20
66598;DHT22;57424;53.128;6.406;2024-02-21T13:27:33;14.00;72.20
66598;DHT22;57424;53.128;6.406;2024-02-21T13:29:58;14.00;72.10
66598;DHT22;57424;53.128;6.406;2024-02-21T13:32:25;14.00;72.10
66598;DHT22;57424;53.128;6.406;2024-02-21T13:34:51;14.00;72.00
66598;DHT22;57424;53.128;6.406;2024-02-21T13:37:17;14.00;72.00
66598;DHT22;57424;53.128;6.406;2024-02-21T13:39:43;14.00;71.90
66598;DHT22;57424;53.128;6.406;2024-02-21T13:42:09;14.10;71.90
66598;DHT22;57424;53.128;6.406;2024-02-21T13:44:35;14.00;71.80
66598;DHT22;57424;53.128;6.406;2024-02-21T13:47:02;14.10;71.70
66598;DHT22;57424;53.128;6.406;2024-02-21T13:49:27;14.10;71.70
66598;DHT22;57424;53.128;6.406;2024-02-21T13:51:54;14.10;71.70
66598;DHT22;57424;53.128;6.406;2024-02-21T13:54:19;14.10;71.60
66598;DHT22;57424;53.128;6.406;2024-02-21T13:56:46;14.10;71.60
66598;DHT22;57424;53.128;6.406;2024-02-21T13:59:12;14.10;71.60
66598;DHT22;57424;53.128;6.406;2024-02-21T14:01:41;14.10;71.50
66598;DHT22;57424;53.128;6.406;2024-02-21T14:04:08;14.10;71.50
66598;DHT22;57424;53.128;6.406;2024-02-21T14:06:33;14.10;71.40
66598;DHT22;57424;53.128;6.406;2024-02-21T14:08:59;14.10;71.40
66598;DHT22;57424;53.128;6.406;2024-02-21T14:11:25;14.00;71.30
66598;DHT22;57424;53.128;6.406;2024-02-21T14:13:52;14.10;71.30
66598;DHT22;57424;53.128;6.406;2024-02-21T14:16:18;14.00;71.20
66598;DHT22;57424;53.128;6.406;2024-02-21T14:18:43;14.00;71.20
66598;DHT22;57424;53.128;6.406;2024-02-21T14:21:12;14.00;71.80
66598;DHT22;57424;53.128;6.406;2024-02-21T14:23:38;14.00;71.20
66598;DHT22;57424;53.128;6.406;2024-02-21T14:26:04;14.00;71.20
66598;DHT22;57424;53.128;6.406;2024-02-21T14:28:30;14.00;71.20
66598;DHT22;57424;53.128;6.406;2024-02-21T14:30:55;14.00;71.10
66598;DHT22;57424;53.128;6.406;2024-02-21T14:33:23;14.00;71.10
66598;DHT22;57424;53.128;6.406;2024-02-21T14:35:50;14.00;71.10
66598;DHT22;57424;53.128;6.406;2024-02-21T14:38:16;14.00;71.00
66598;DHT22;57424;53.128;6.406;2024-02-21T14:40:42;14.00;71.00
66598;DHT22;57424;53.128;6.406;2024-02-21T14:43:08;14.00;71.00
66598;DHT22;57424;53.128;6.406;2024-02-21T14:45:34;14.00;71.00
66598;DHT22;57424;53.128;6.406;2024-02-21T14:47:59;13.90;70.90
66598;DHT22;57424;53.128;6.406;2024-02-21T14:50:25;13.90;70.90
66598;DHT22;57424;53.128;6.406;2024-02-21T14:52:50;13.90;70.90
66598;DHT22;57424;53.128;6.406;2024-02-21T14:55:17;13.90;70.90
66598;DHT22;57424;53.128;6.406;2024-02-21T14:57:43;13.90;71.50
66598;DHT22;57424;53.128;6.406;2024-02-21T15:00:13;13.90;70.80
66598;DHT22;57424;53.128;6.406;2024-02-21T15:02:39;13.90;70.80
66598;DHT22;57424;53.128;6.406;2024-02-21T15:05:05;13.80;70.80
66598;DHT22;57424;53.128;6.406;2024-02-21T15:07:31;13.90;70.90
66598;DHT22;57424;53.128;6.406;2024-02-21T15:09:57;13.90;70.90
66598;DHT22;57424;53.128;6.406;2024-02-21T15:12:23;13.80;70.80
66598;DHT22;57424;53.128;6.406;2024-02-21T15:14:49;13.80;70.80
66598;DHT22;57424;53.128;6.406;2024-02-21T15:17:15;13.80;70.90
66598;DHT22;57424;53.128;6.406;2024-02-21T15:19:40;13.80;70.90
66598;DHT22;57424;53.128;6.406;2024-02-21T15:22:09;13.80;70.90
66598;DHT22;57424;53.128;6.406;2024-02-21T15:24:39;13.80;70.90
66598;DHT22;57424;53.128;6.406;2024-02-21T15:27:05;13.80;70.90
66598;DHT22;57424;53.128;6.406;2024-02-21T15:29:31;13.80;70.90
66598;DHT22;57424;53.128;6.406;2024-02-21T15:31:57;13.80;70.90